Vorogovo, Russia
Current Conditions -  °F | °C
As of 4:30 AM on Saturday 29 Nov 2014 (Local Time) from UNKL Reporting Station
Broken Clouds Broken Clouds  
Wind Chill: -46°   Ceiling: 17000
Heat Index: -31°   Visibility: 4mi
Dew Point: -40°   Wind: 4mph
Humidity: 62%   Direction: NA
Pressure: 30.68"   Gusts: NA
Location:  61.03°N, 89.63°E
Report Text: UNKL 282130Z VRB02MPS 7000 BKN170 M35/M40 Q1039 NOSIG RMKQFE753 11////60
Loading
Personal Weather Stations






























Interactive Weather Map New forecast layout! Learn more

10-Day Weather Forecast

Advertisements
Track Severe Weather on mobile